sensor_id;sensor_type;location;lat;lon;timestamp;P1;durP1;ratioP1;P2;durP2;ratioP2
69207;SDS011;70114;47.690;8.898;2023-07-09T00:00:18;6.90;;;2.20;;
69207;SDS011;70114;47.690;8.898;2023-07-09T00:02:44;8.10;;;2.50;;
69207;SDS011;70114;47.690;8.898;2023-07-09T00:05:14;7.72;;;2.35;;
69207;SDS011;70114;47.690;8.898;2023-07-09T00:07:41;7.82;;;2.20;;
69207;SDS011;70114;47.690;8.898;2023-07-09T00:10:19;7.15;;;2.38;;
69207;SDS011;70114;47.690;8.898;2023-07-09T00:12:46;7.47;;;2.25;;
69207;SDS011;70114;47.690;8.898;2023-07-09T00:15:12;6.57;;;2.40;;
69207;SDS011;70114;47.690;8.898;2023-07-09T00:17:40;7.20;;;2.22;;
69207;SDS011;70114;47.690;8.898;2023-07-09T00:20:07;7.07;;;1.87;;
69207;SDS011;70114;47.690;8.898;2023-07-09T00:22:37;8.00;;;2.28;;
69207;SDS011;70114;47.690;8.898;2023-07-09T00:25:02;6.60;;;2.00;;
69207;SDS011;70114;47.690;8.898;2023-07-09T00:27:29;6.20;;;1.92;;
69207;SDS011;70114;47.690;8.898;2023-07-09T00:29:55;6.50;;;2.20;;
69207;SDS011;70114;47.690;8.898;2023-07-09T00:32:21;6.93;;;2.30;;
69207;SDS011;70114;47.690;8.898;2023-07-09T00:34:47;6.17;;;2.00;;
69207;SDS011;70114;47.690;8.898;2023-07-09T00:37:19;6.68;;;2.00;;
69207;SDS011;70114;47.690;8.898;2023-07-09T00:39:47;7.95;;;2.30;;
69207;SDS011;70114;47.690;8.898;2023-07-09T00:42:14;7.03;;;2.33;;
69207;SDS011;70114;47.690;8.898;2023-07-09T00:44:43;7.50;;;2.38;;
69207;SDS011;70114;47.690;8.898;2023-07-09T00:50:23;8.15;;;2.45;;
69207;SDS011;70114;47.690;8.898;2023-07-09T00:52:56;8.75;;;2.47;;
69207;SDS011;70114;47.690;8.898;2023-07-09T00:55:25;7.35;;;2.33;;
69207;SDS011;70114;47.690;8.898;2023-07-09T00:57:57;8.02;;;2.40;;
69207;SDS011;70114;47.690;8.898;2023-07-09T01:00:28;7.70;;;2.37;;
69207;SDS011;70114;47.690;8.898;2023-07-09T01:03:07;6.72;;;2.13;;
69207;SDS011;70114;47.690;8.898;2023-07-09T01:05:35;7.78;;;2.28;;
69207;SDS011;70114;47.690;8.898;2023-07-09T01:08:02;7.75;;;2.33;;
69207;SDS011;70114;47.690;8.898;2023-07-09T01:10:27;7.20;;;1.90;;
69207;SDS011;70114;47.690;8.898;2023-07-09T01:12:53;6.68;;;2.30;;
69207;SDS011;70114;47.690;8.898;2023-07-09T01:15:18;6.73;;;2.03;;
69207;SDS011;70114;47.690;8.898;2023-07-09T01:17:44;6.93;;;2.33;;
69207;SDS011;70114;47.690;8.898;2023-07-09T01:20:14;6.50;;;2.10;;
69207;SDS011;70114;47.690;8.898;2023-07-09T01:22:41;6.15;;;1.98;;
69207;SDS011;70114;47.690;8.898;2023-07-09T01:25:07;7.53;;;2.30;;
69207;SDS011;70114;47.690;8.898;2023-07-09T01:27:36;7.35;;;2.53;;
69207;SDS011;70114;47.690;8.898;2023-07-09T01:30:05;8.43;;;2.27;;
69207;SDS011;70114;47.690;8.898;2023-07-09T01:32:33;6.78;;;1.90;;
69207;SDS011;70114;47.690;8.898;2023-07-09T01:34:59;6.65;;;2.20;;
69207;SDS011;70114;47.690;8.898;2023-07-09T01:37:30;6.68;;;2.40;;
69207;SDS011;70114;47.690;8.898;2023-07-09T01:39:56;6.90;;;2.30;;
69207;SDS011;70114;47.690;8.898;2023-07-09T01:42:23;6.32;;;2.20;;
69207;SDS011;70114;47.690;8.898;2023-07-09T01:44:50;9.27;;;2.70;;
69207;SDS011;70114;47.690;8.898;2023-07-09T01:47:17;6.80;;;2.33;;
69207;SDS011;70114;47.690;8.898;2023-07-09T01:49:43;7.45;;;2.30;;
69207;SDS011;70114;47.690;8.898;2023-07-09T01:52:11;7.30;;;2.58;;
69207;SDS011;70114;47.690;8.898;2023-07-09T01:54:38;7.43;;;2.40;;
69207;SDS011;70114;47.690;8.898;2023-07-09T01:57:14;7.57;;;2.20;;
69207;SDS011;70114;47.690;8.898;2023-07-09T01:59:52;7.05;;;2.30;;
69207;SDS011;70114;47.690;8.898;2023-07-09T02:02:20;8.57;;;2.50;;
69207;SDS011;70114;47.690;8.898;2023-07-09T02:04:47;6.65;;;2.13;;
69207;SDS011;70114;47.690;8.898;2023-07-09T02:07:17;8.97;;;2.30;;
69207;SDS011;70114;47.690;8.898;2023-07-09T02:09:43;7.50;;;2.53;;
69207;SDS011;70114;47.690;8.898;2023-07-09T02:12:09;7.83;;;2.27;;
69207;SDS011;70114;47.690;8.898;2023-07-09T02:14:36;9.30;;;2.35;;
69207;SDS011;70114;47.690;8.898;2023-07-09T02:17:01;6.00;;;2.00;;
69207;SDS011;70114;47.690;8.898;2023-07-09T02:19:28;7.10;;;2.20;;
69207;SDS011;70114;47.690;8.898;2023-07-09T02:21:54;8.17;;;2.50;;
69207;SDS011;70114;47.690;8.898;2023-07-09T02:24:20;7.55;;;2.50;;
69207;SDS011;70114;47.690;8.898;2023-07-09T02:26:49;6.47;;;2.10;;
69207;SDS011;70114;47.690;8.898;2023-07-09T02:29:15;8.38;;;2.20;;
69207;SDS011;70114;47.690;8.898;2023-07-09T02:31:40;7.90;;;2.33;;
69207;SDS011;70114;47.690;8.898;2023-07-09T02:34:06;8.00;;;2.40;;
69207;SDS011;70114;47.690;8.898;2023-07-09T02:36:32;8.35;;;2.15;;
69207;SDS011;70114;47.690;8.898;2023-07-09T02:38:57;7.30;;;2.77;;
69207;SDS011;70114;47.690;8.898;2023-07-09T02:41:22;8.10;;;2.30;;
69207;SDS011;70114;47.690;8.898;2023-07-09T02:43:48;6.33;;;2.17;;
69207;SDS011;70114;47.690;8.898;2023-07-09T02:46:13;8.90;;;2.35;;
69207;SDS011;70114;47.690;8.898;2023-07-09T02:48:38;7.23;;;2.20;;
69207;SDS011;70114;47.690;8.898;2023-07-09T02:51:04;6.53;;;2.10;;
69207;SDS011;70114;47.690;8.898;2023-07-09T02:53:29;6.33;;;2.13;;
69207;SDS011;70114;47.690;8.898;2023-07-09T02:55:55;7.07;;;2.40;;
69207;SDS011;70114;47.690;8.898;2023-07-09T02:58:20;7.40;;;2.08;;
69207;SDS011;70114;47.690;8.898;2023-07-09T03:00:48;7.37;;;2.60;;
69207;SDS011;70114;47.690;8.898;2023-07-09T03:03:17;7.13;;;2.40;;
69207;SDS011;70114;47.690;8.898;2023-07-09T03:05:44;7.05;;;2.47;;
69207;SDS011;70114;47.690;8.898;2023-07-09T03:08:10;7.03;;;2.40;;
69207;SDS011;70114;47.690;8.898;2023-07-09T03:10:35;8.77;;;2.15;;
69207;SDS011;70114;47.690;8.898;2023-07-09T03:13:00;8.17;;;2.00;;
69207;SDS011;70114;47.690;8.898;2023-07-09T03:15:26;7.60;;;2.10;;
69207;SDS011;70114;47.690;8.898;2023-07-09T03:17:51;6.50;;;2.30;;
69207;SDS011;70114;47.690;8.898;2023-07-09T03:20:16;7.33;;;2.47;;
69207;SDS011;70114;47.690;8.898;2023-07-09T03:22:42;8.57;;;2.57;;
69207;SDS011;70114;47.690;8.898;2023-07-09T03:25:07;7.13;;;2.65;;
69207;SDS011;70114;47.690;8.898;2023-07-09T03:27:33;6.70;;;2.30;;
69207;SDS011;70114;47.690;8.898;2023-07-09T03:29:58;6.47;;;2.30;;
69207;SDS011;70114;47.690;8.898;2023-07-09T03:32:25;9.68;;;2.47;;
69207;SDS011;70114;47.690;8.898;2023-07-09T03:34:50;7.70;;;2.40;;
69207;SDS011;70114;47.690;8.898;2023-07-09T03:37:18;8.45;;;2.42;;
69207;SDS011;70114;47.690;8.898;2023-07-09T03:39:45;8.80;;;2.60;;
69207;SDS011;70114;47.690;8.898;2023-07-09T03:42:10;8.15;;;2.42;;
69207;SDS011;70114;47.690;8.898;2023-07-09T03:44:36;8.35;;;2.80;;
69207;SDS011;70114;47.690;8.898;2023-07-09T03:47:01;8.00;;;2.20;;
69207;SDS011;70114;47.690;8.898;2023-07-09T03:49:27;6.43;;;2.07;;
69207;SDS011;70114;47.690;8.898;2023-07-09T03:51:52;8.37;;;2.57;;
69207;SDS011;70114;47.690;8.898;2023-07-09T03:54:18;8.25;;;2.35;;
69207;SDS011;70114;47.690;8.898;2023-07-09T03:56:43;9.63;;;2.50;;
69207;SDS011;70114;47.690;8.898;2023-07-09T03:59:09;7.03;;;2.33;;
69207;SDS011;70114;47.690;8.898;2023-07-09T04:01:34;6.90;;;2.00;;
69207;SDS011;70114;47.690;8.898;2023-07-09T04:04:00;7.93;;;2.40;;
69207;SDS011;70114;47.690;8.898;2023-07-09T04:06:25;8.33;;;2.40;;
69207;SDS011;70114;47.690;8.898;2023-07-09T04:08:51;8.27;;;2.20;;
69207;SDS011;70114;47.690;8.898;2023-07-09T04:11:16;7.97;;;1.95;;
69207;SDS011;70114;47.690;8.898;2023-07-09T04:13:41;8.30;;;2.50;;
69207;SDS011;70114;47.690;8.898;2023-07-09T04:16:07;7.90;;;2.50;;
69207;SDS011;70114;47.690;8.898;2023-07-09T04:18:32;8.00;;;2.70;;
69207;SDS011;70114;47.690;8.898;2023-07-09T04:20:57;6.03;;;2.07;;
69207;SDS011;70114;47.690;8.898;2023-07-09T04:23:23;6.32;;;2.20;;
69207;SDS011;70114;47.690;8.898;2023-07-09T04:25:48;7.93;;;2.30;;
69207;SDS011;70114;47.690;8.898;2023-07-09T04:28:14;7.57;;;2.47;;
69207;SDS011;70114;47.690;8.898;2023-07-09T04:30:45;7.18;;;2.20;;
69207;SDS011;70114;47.690;8.898;2023-07-09T04:33:14;6.85;;;2.40;;
69207;SDS011;70114;47.690;8.898;2023-07-09T04:35:42;8.40;;;2.70;;
69207;SDS011;70114;47.690;8.898;2023-07-09T04:38:08;8.88;;;2.53;;
69207;SDS011;70114;47.690;8.898;2023-07-09T04:40:34;7.20;;;2.67;;
69207;SDS011;70114;47.690;8.898;2023-07-09T04:42:59;7.05;;;2.00;;
69207;SDS011;70114;47.690;8.898;2023-07-09T04:45:24;10.37;;;2.73;;
69207;SDS011;70114;47.690;8.898;2023-07-09T04:47:50;7.13;;;2.57;;
69207;SDS011;70114;47.690;8.898;2023-07-09T04:50:15;6.90;;;2.50;;
69207;SDS011;70114;47.690;8.898;2023-07-09T04:52:40;7.60;;;2.47;;
69207;SDS011;70114;47.690;8.898;2023-07-09T04:55:06;6.85;;;2.28;;
69207;SDS011;70114;47.690;8.898;2023-07-09T04:57:33;7.10;;;2.30;;
69207;SDS011;70114;47.690;8.898;2023-07-09T04:59:59;8.30;;;2.60;;
69207;SDS011;70114;47.690;8.898;2023-07-09T05:02:24;7.53;;;2.13;;
69207;SDS011;70114;47.690;8.898;2023-07-09T05:04:50;7.32;;;2.40;;
69207;SDS011;70114;47.690;8.898;2023-07-09T05:07:16;7.57;;;2.47;;
69207;SDS011;70114;47.690;8.898;2023-07-09T05:09:41;7.00;;;2.20;;
69207;SDS011;70114;47.690;8.898;2023-07-09T05:12:07;7.67;;;2.47;;
69207;SDS011;70114;47.690;8.898;2023-07-09T05:14:33;7.63;;;2.38;;
69207;SDS011;70114;47.690;8.898;2023-07-09T05:16:59;7.93;;;2.17;;
69207;SDS011;70114;47.690;8.898;2023-07-09T05:19:24;6.90;;;2.40;;
69207;SDS011;70114;47.690;8.898;2023-07-09T05:21:49;7.47;;;2.40;;
69207;SDS011;70114;47.690;8.898;2023-07-09T05:24:15;7.37;;;2.53;;
69207;SDS011;70114;47.690;8.898;2023-07-09T05:26:40;7.87;;;2.23;;
69207;SDS011;70114;47.690;8.898;2023-07-09T05:29:06;6.90;;;2.27;;
69207;SDS011;70114;47.690;8.898;2023-07-09T05:31:32;8.70;;;2.58;;
69207;SDS011;70114;47.690;8.898;2023-07-09T05:33:58;7.07;;;2.40;;
69207;SDS011;70114;47.690;8.898;2023-07-09T05:36:25;7.35;;;2.45;;
69207;SDS011;70114;47.690;8.898;2023-07-09T05:38:51;6.68;;;2.30;;
69207;SDS011;70114;47.690;8.898;2023-07-09T05:41:16;7.70;;;2.57;;
69207;SDS011;70114;47.690;8.898;2023-07-09T05:43:45;6.60;;;2.40;;
69207;SDS011;70114;47.690;8.898;2023-07-09T05:46:12;6.65;;;2.50;;
69207;SDS011;70114;47.690;8.898;2023-07-09T05:48:38;7.07;;;2.38;;
69207;SDS011;70114;47.690;8.898;2023-07-09T05:51:04;7.27;;;2.70;;
69207;SDS011;70114;47.690;8.898;2023-07-09T05:53:29;6.88;;;2.30;;
69207;SDS011;70114;47.690;8.898;2023-07-09T05:55:57;7.00;;;2.40;;
69207;SDS011;70114;47.690;8.898;2023-07-09T05:58:22;7.53;;;2.60;;
69207;SDS011;70114;47.690;8.898;2023-07-09T06:00:54;7.20;;;2.40;;
69207;SDS011;70114;47.690;8.898;2023-07-09T06:03:22;7.13;;;2.60;;
69207;SDS011;70114;47.690;8.898;2023-07-09T06:05:48;6.55;;;2.30;;
69207;SDS011;70114;47.690;8.898;2023-07-09T06:08:15;7.13;;;2.45;;
69207;SDS011;70114;47.690;8.898;2023-07-09T06:10:49;6.80;;;2.40;;
69207;SDS011;70114;47.690;8.898;2023-07-09T06:13:25;6.90;;;2.50;;
69207;SDS011;70114;47.690;8.898;2023-07-09T06:15:52;6.75;;;2.60;;
69207;SDS011;70114;47.690;8.898;2023-07-09T06:18:19;7.38;;;2.85;;
69207;SDS011;70114;47.690;8.898;2023-07-09T06:20:46;6.80;;;2.63;;
69207;SDS011;70114;47.690;8.898;2023-07-09T06:23:13;7.20;;;2.78;;
69207;SDS011;70114;47.690;8.898;2023-07-09T06:25:38;7.77;;;2.80;;
69207;SDS011;70114;47.690;8.898;2023-07-09T06:28:03;6.87;;;2.50;;
69207;SDS011;70114;47.690;8.898;2023-07-09T06:30:29;7.20;;;3.07;;
69207;SDS011;70114;47.690;8.898;2023-07-09T06:32:54;7.23;;;2.80;;
69207;SDS011;70114;47.690;8.898;2023-07-09T06:35:19;7.55;;;2.53;;
69207;SDS011;70114;47.690;8.898;2023-07-09T06:37:45;7.70;;;2.60;;
69207;SDS011;70114;47.690;8.898;2023-07-09T06:40:10;7.53;;;2.70;;
69207;SDS011;70114;47.690;8.898;2023-07-09T06:42:37;7.80;;;3.03;;
69207;SDS011;70114;47.690;8.898;2023-07-09T06:45:03;6.90;;;2.83;;
69207;SDS011;70114;47.690;8.898;2023-07-09T06:47:29;7.20;;;3.10;;
69207;SDS011;70114;47.690;8.898;2023-07-09T06:49:55;8.02;;;2.92;;
69207;SDS011;70114;47.690;8.898;2023-07-09T06:52:20;7.10;;;2.93;;
69207;SDS011;70114;47.690;8.898;2023-07-09T06:54:46;7.80;;;3.30;;
69207;SDS011;70114;47.690;8.898;2023-07-09T06:57:11;8.40;;;3.10;;
69207;SDS011;70114;47.690;8.898;2023-07-09T06:59:36;7.33;;;3.17;;
69207;SDS011;70114;47.690;8.898;2023-07-09T07:02:03;8.43;;;3.40;;
69207;SDS011;70114;47.690;8.898;2023-07-09T07:04:28;6.90;;;3.22;;
69207;SDS011;70114;47.690;8.898;2023-07-09T07:06:54;7.63;;;3.00;;
69207;SDS011;70114;47.690;8.898;2023-07-09T07:09:21;6.80;;;2.95;;
69207;SDS011;70114;47.690;8.898;2023-07-09T07:11:47;7.57;;;3.35;;
69207;SDS011;70114;47.690;8.898;2023-07-09T07:14:13;7.50;;;3.67;;
69207;SDS011;70114;47.690;8.898;2023-07-09T07:16:38;7.10;;;3.00;;
69207;SDS011;70114;47.690;8.898;2023-07-09T07:19:03;7.10;;;2.80;;
69207;SDS011;70114;47.690;8.898;2023-07-09T07:21:30;7.30;;;2.90;;
69207;SDS011;70114;47.690;8.898;2023-07-09T07:23:56;8.35;;;3.30;;
69207;SDS011;70114;47.690;8.898;2023-07-09T07:26:21;7.93;;;3.20;;
69207;SDS011;70114;47.690;8.898;2023-07-09T07:28:47;8.40;;;2.90;;
69207;SDS011;70114;47.690;8.898;2023-07-09T07:31:13;7.13;;;2.80;;
69207;SDS011;70114;47.690;8.898;2023-07-09T07:33:39;8.27;;;3.17;;
69207;SDS011;70114;47.690;8.898;2023-07-09T07:36:06;7.40;;;3.30;;
69207;SDS011;70114;47.690;8.898;2023-07-09T07:38:32;7.72;;;3.10;;
69207;SDS011;70114;47.690;8.898;2023-07-09T07:40:58;7.03;;;3.07;;
69207;SDS011;70114;47.690;8.898;2023-07-09T07:43:23;8.07;;;3.00;;
69207;SDS011;70114;47.690;8.898;2023-07-09T07:45:48;7.10;;;3.13;;
69207;SDS011;70114;47.690;8.898;2023-07-09T07:48:14;7.13;;;3.17;;
69207;SDS011;70114;47.690;8.898;2023-07-09T07:50:39;7.47;;;3.17;;
69207;SDS011;70114;47.690;8.898;2023-07-09T07:53:06;8.18;;;2.95;;
69207;SDS011;70114;47.690;8.898;2023-07-09T07:55:33;6.90;;;3.22;;
69207;SDS011;70114;47.690;8.898;2023-07-09T07:57:58;7.60;;;3.40;;
69207;SDS011;70114;47.690;8.898;2023-07-09T08:00:25;7.38;;;3.20;;
69207;SDS011;70114;47.690;8.898;2023-07-09T08:02:50;8.13;;;3.10;;
69207;SDS011;70114;47.690;8.898;2023-07-09T08:05:16;8.98;;;3.72;;
69207;SDS011;70114;47.690;8.898;2023-07-09T08:07:41;8.17;;;3.40;;
69207;SDS011;70114;47.690;8.898;2023-07-09T08:10:07;8.00;;;3.67;;
69207;SDS011;70114;47.690;8.898;2023-07-09T08:12:33;8.13;;;3.33;;
69207;SDS011;70114;47.690;8.898;2023-07-09T08:14:58;8.57;;;3.20;;
69207;SDS011;70114;47.690;8.898;2023-07-09T08:17:24;8.53;;;3.77;;
69207;SDS011;70114;47.690;8.898;2023-07-09T08:19:50;8.63;;;4.03;;
69207;SDS011;70114;47.690;8.898;2023-07-09T08:22:18;7.53;;;3.38;;
69207;SDS011;70114;47.690;8.898;2023-07-09T08:24:45;7.68;;;3.60;;
69207;SDS011;70114;47.690;8.898;2023-07-09T08:27:11;9.50;;;3.73;;
69207;SDS011;70114;47.690;8.898;2023-07-09T08:29:37;9.50;;;3.97;;
69207;SDS011;70114;47.690;8.898;2023-07-09T08:32:03;7.90;;;3.73;;
69207;SDS011;70114;47.690;8.898;2023-07-09T08:34:29;8.73;;;3.85;;
69207;SDS011;70114;47.690;8.898;2023-07-09T08:36:54;8.30;;;4.07;;
69207;SDS011;70114;47.690;8.898;2023-07-09T08:39:20;8.00;;;4.03;;
69207;SDS011;70114;47.690;8.898;2023-07-09T08:41:50;9.43;;;4.63;;
69207;SDS011;70114;47.690;8.898;2023-07-09T08:47:02;8.60;;;4.22;;
69207;SDS011;70114;47.690;8.898;2023-07-09T08:55:07;9.13;;;4.05;;
69207;SDS011;70114;47.690;8.898;2023-07-09T08:57:55;8.13;;;3.63;;
69207;SDS011;70114;47.690;8.898;2023-07-09T09:02:59;7.03;;;3.30;;
69207;SDS011;70114;47.690;8.898;2023-07-09T09:05:25;7.00;;;3.20;;
69207;SDS011;70114;47.690;8.898;2023-07-09T09:07:56;7.63;;;3.20;;
69207;SDS011;70114;47.690;8.898;2023-07-09T09:10:41;7.00;;;3.50;;
69207;SDS011;70114;47.690;8.898;2023-07-09T09:13:13;8.82;;;3.35;;
69207;SDS011;70114;47.690;8.898;2023-07-09T09:15:45;8.17;;;3.63;;
69207;SDS011;70114;47.690;8.898;2023-07-09T09:20:37;7.33;;;3.00;;
69207;SDS011;70114;47.690;8.898;2023-07-09T09:23:15;8.38;;;3.47;;
69207;SDS011;70114;47.690;8.898;2023-07-09T09:25:41;7.57;;;2.80;;
69207;SDS011;70114;47.690;8.898;2023-07-09T09:28:10;6.82;;;3.10;;
69207;SDS011;70114;47.690;8.898;2023-07-09T09:30:36;9.37;;;3.30;;
69207;SDS011;70114;47.690;8.898;2023-07-09T09:33:02;7.00;;;3.10;;
69207;SDS011;70114;47.690;8.898;2023-07-09T09:35:39;7.75;;;2.85;;
69207;SDS011;70114;47.690;8.898;2023-07-09T09:38:10;6.70;;;2.90;;
69207;SDS011;70114;47.690;8.898;2023-07-09T09:40:37;6.43;;;2.92;;
69207;SDS011;70114;47.690;8.898;2023-07-09T09:43:08;7.27;;;3.70;;
69207;SDS011;70114;47.690;8.898;2023-07-09T09:45:39;7.20;;;2.70;;
69207;SDS011;70114;47.690;8.898;2023-07-09T09:50:40;6.47;;;2.30;;
69207;SDS011;70114;47.690;8.898;2023-07-09T09:53:06;6.63;;;2.28;;
69207;SDS011;70114;47.690;8.898;2023-07-09T09:55:33;7.57;;;2.40;;
69207;SDS011;70114;47.690;8.898;2023-07-09T09:57:59;6.10;;;2.55;;
69207;SDS011;70114;47.690;8.898;2023-07-09T10:00:26;7.00;;;2.67;;
69207;SDS011;70114;47.690;8.898;2023-07-09T10:02:57;7.00;;;2.40;;
69207;SDS011;70114;47.690;8.898;2023-07-09T10:05:27;6.57;;;2.50;;
69207;SDS011;70114;47.690;8.898;2023-07-09T10:07:59;6.80;;;3.00;;
69207;SDS011;70114;47.690;8.898;2023-07-09T10:10:32;7.00;;;3.00;;
69207;SDS011;70114;47.690;8.898;2023-07-09T10:24:02;7.13;;;2.70;;
69207;SDS011;70114;47.690;8.898;2023-07-09T10:26:51;7.53;;;2.85;;
69207;SDS011;70114;47.690;8.898;2023-07-09T10:32:43;6.13;;;2.75;;
69207;SDS011;70114;47.690;8.898;2023-07-09T10:40:32;6.82;;;2.60;;
69207;SDS011;70114;47.690;8.898;2023-07-09T10:43:04;9.10;;;2.90;;
69207;SDS011;70114;47.690;8.898;2023-07-09T10:45:39;7.13;;;2.72;;
69207;SDS011;70114;47.690;8.898;2023-07-09T10:48:13;7.00;;;2.83;;
69207;SDS011;70114;47.690;8.898;2023-07-09T10:51:00;7.78;;;2.80;;
69207;SDS011;70114;47.690;8.898;2023-07-09T10:53:41;6.28;;;2.53;;
69207;SDS011;70114;47.690;8.898;2023-07-09T10:56:10;5.97;;;2.20;;
69207;SDS011;70114;47.690;8.898;2023-07-09T11:04:43;6.47;;;2.33;;
69207;SDS011;70114;47.690;8.898;2023-07-09T11:07:13;8.10;;;2.60;;
69207;SDS011;70114;47.690;8.898;2023-07-09T11:09:42;6.93;;;2.40;;
69207;SDS011;70114;47.690;8.898;2023-07-09T11:12:12;6.25;;;2.40;;
69207;SDS011;70114;47.690;8.898;2023-07-09T11:15:05;6.30;;;2.58;;
69207;SDS011;70114;47.690;8.898;2023-07-09T11:17:33;7.38;;;2.58;;
69207;SDS011;70114;47.690;8.898;2023-07-09T11:20:07;7.05;;;2.42;;
69207;SDS011;70114;47.690;8.898;2023-07-09T11:22:40;5.10;;;2.00;;
69207;SDS011;70114;47.690;8.898;2023-07-09T11:25:13;5.72;;;2.25;;
69207;SDS011;70114;47.690;8.898;2023-07-09T11:30:54;6.57;;;2.28;;
69207;SDS011;70114;47.690;8.898;2023-07-09T11:33:29;6.55;;;2.55;;
69207;SDS011;70114;47.690;8.898;2023-07-09T11:36:09;6.88;;;2.20;;
69207;SDS011;70114;47.690;8.898;2023-07-09T11:38:46;5.63;;;1.80;;
69207;SDS011;70114;47.690;8.898;2023-07-09T11:49:52;6.15;;;2.40;;
69207;SDS011;70114;47.690;8.898;2023-07-09T11:52:47;6.35;;;2.22;;
69207;SDS011;70114;47.690;8.898;2023-07-09T11:55:19;6.67;;;2.63;;
69207;SDS011;70114;47.690;8.898;2023-07-09T11:58:19;5.78;;;2.15;;
69207;SDS011;70114;47.690;8.898;2023-07-09T12:00:45;6.05;;;2.63;;
69207;SDS011;70114;47.690;8.898;2023-07-09T12:03:20;6.73;;;2.10;;
69207;SDS011;70114;47.690;8.898;2023-07-09T12:05:53;7.97;;;2.40;;
69207;SDS011;70114;47.690;8.898;2023-07-09T12:08:23;6.55;;;2.60;;
69207;SDS011;70114;47.690;8.898;2023-07-09T12:10:57;6.35;;;2.58;;
69207;SDS011;70114;47.690;8.898;2023-07-09T12:13:22;6.50;;;2.80;;
69207;SDS011;70114;47.690;8.898;2023-07-09T12:15:48;7.60;;;2.67;;
69207;SDS011;70114;47.690;8.898;2023-07-09T12:18:14;6.53;;;2.13;;
69207;SDS011;70114;47.690;8.898;2023-07-09T12:20:41;6.38;;;2.28;;
69207;SDS011;70114;47.690;8.898;2023-07-09T12:23:23;6.10;;;2.72;;
69207;SDS011;70114;47.690;8.898;2023-07-09T12:25:52;7.93;;;3.03;;
69207;SDS011;70114;47.690;8.898;2023-07-09T12:28:19;6.22;;;2.67;;
69207;SDS011;70114;47.690;8.898;2023-07-09T12:30:49;7.47;;;2.37;;
69207;SDS011;70114;47.690;8.898;2023-07-09T12:33:17;6.43;;;2.60;;
69207;SDS011;70114;47.690;8.898;2023-07-09T12:35:44;7.57;;;3.00;;
69207;SDS011;70114;47.690;8.898;2023-07-09T12:38:19;6.97;;;2.30;;
69207;SDS011;70114;47.690;8.898;2023-07-09T12:40:46;7.07;;;3.20;;
69207;SDS011;70114;47.690;8.898;2023-07-09T12:43:13;7.87;;;3.07;;
69207;SDS011;70114;47.690;8.898;2023-07-09T12:45:42;8.25;;;2.85;;
69207;SDS011;70114;47.690;8.898;2023-07-09T12:48:07;7.77;;;2.90;;
69207;SDS011;70114;47.690;8.898;2023-07-09T12:50:38;6.43;;;2.97;;
69207;SDS011;70114;47.690;8.898;2023-07-09T12:53:11;7.13;;;3.17;;
69207;SDS011;70114;47.690;8.898;2023-07-09T12:55:40;7.13;;;3.33;;
69207;SDS011;70114;47.690;8.898;2023-07-09T12:58:10;6.43;;;3.20;;
69207;SDS011;70114;47.690;8.898;2023-07-09T13:00:41;7.90;;;2.85;;
69207;SDS011;70114;47.690;8.898;2023-07-09T13:03:16;6.57;;;3.03;;
69207;SDS011;70114;47.690;8.898;2023-07-09T13:08:58;7.07;;;3.07;;
69207;SDS011;70114;47.690;8.898;2023-07-09T13:11:25;8.50;;;3.22;;
69207;SDS011;70114;47.690;8.898;2023-07-09T13:13:59;5.82;;;3.05;;
69207;SDS011;70114;47.690;8.898;2023-07-09T13:16:29;6.55;;;2.70;;
69207;SDS011;70114;47.690;8.898;2023-07-09T13:18:55;6.68;;;2.70;;
69207;SDS011;70114;47.690;8.898;2023-07-09T13:21:21;6.40;;;2.80;;
69207;SDS011;70114;47.690;8.898;2023-07-09T13:23:47;7.07;;;3.17;;
69207;SDS011;70114;47.690;8.898;2023-07-09T13:26:14;6.95;;;3.00;;
69207;SDS011;70114;47.690;8.898;2023-07-09T13:28:41;8.10;;;3.50;;
69207;SDS011;70114;47.690;8.898;2023-07-09T13:31:23;5.95;;;2.85;;
69207;SDS011;70114;47.690;8.898;2023-07-09T13:33:56;6.88;;;2.67;;
69207;SDS011;70114;47.690;8.898;2023-07-09T13:36:23;6.00;;;2.70;;
69207;SDS011;70114;47.690;8.898;2023-07-09T13:38:49;6.93;;;2.63;;
69207;SDS011;70114;47.690;8.898;2023-07-09T13:41:16;6.57;;;3.10;;
69207;SDS011;70114;47.690;8.898;2023-07-09T13:43:44;6.55;;;2.70;;
69207;SDS011;70114;47.690;8.898;2023-07-09T13:46:11;7.20;;;2.90;;
69207;SDS011;70114;47.690;8.898;2023-07-09T13:48:38;7.53;;;2.58;;
69207;SDS011;70114;47.690;8.898;2023-07-09T13:51:11;7.05;;;3.05;;
69207;SDS011;70114;47.690;8.898;2023-07-09T13:53:40;7.47;;;2.75;;
69207;SDS011;70114;47.690;8.898;2023-07-09T13:56:05;7.53;;;3.23;;
69207;SDS011;70114;47.690;8.898;2023-07-09T13:58:31;6.10;;;2.90;;
69207;SDS011;70114;47.690;8.898;2023-07-09T14:00:57;7.20;;;2.70;;
69207;SDS011;70114;47.690;8.898;2023-07-09T14:03:29;6.40;;;2.53;;
69207;SDS011;70114;47.690;8.898;2023-07-09T14:05:56;6.93;;;2.42;;
69207;SDS011;70114;47.690;8.898;2023-07-09T14:08:21;6.87;;;3.20;;
69207;SDS011;70114;47.690;8.898;2023-07-09T14:10:47;6.40;;;2.90;;
69207;SDS011;70114;47.690;8.898;2023-07-09T14:13:15;7.57;;;2.73;;
69207;SDS011;70114;47.690;8.898;2023-07-09T14:15:42;6.88;;;2.97;;
69207;SDS011;70114;47.690;8.898;2023-07-09T14:18:12;7.97;;;3.30;;
69207;SDS011;70114;47.690;8.898;2023-07-09T14:20:39;6.95;;;2.88;;
69207;SDS011;70114;47.690;8.898;2023-07-09T14:23:05;7.10;;;3.20;;
69207;SDS011;70114;47.690;8.898;2023-07-09T14:25:30;6.63;;;2.53;;
69207;SDS011;70114;47.690;8.898;2023-07-09T14:27:55;6.90;;;3.10;;
69207;SDS011;70114;47.690;8.898;2023-07-09T14:30:24;7.23;;;3.50;;
69207;SDS011;70114;47.690;8.898;2023-07-09T14:32:50;6.65;;;3.28;;
69207;SDS011;70114;47.690;8.898;2023-07-09T14:35:18;7.35;;;3.13;;
69207;SDS011;70114;47.690;8.898;2023-07-09T14:37:46;8.77;;;3.00;;
69207;SDS011;70114;47.690;8.898;2023-07-09T14:40:12;6.88;;;3.20;;
69207;SDS011;70114;47.690;8.898;2023-07-09T14:42:39;7.43;;;3.42;;
69207;SDS011;70114;47.690;8.898;2023-07-09T14:45:06;10.73;;;3.40;;
69207;SDS011;70114;47.690;8.898;2023-07-09T14:47:42;6.90;;;3.08;;
69207;SDS011;70114;47.690;8.898;2023-07-09T14:50:08;7.40;;;3.23;;
69207;SDS011;70114;47.690;8.898;2023-07-09T14:52:34;7.45;;;3.33;;
69207;SDS011;70114;47.690;8.898;2023-07-09T14:55:00;6.93;;;3.27;;
69207;SDS011;70114;47.690;8.898;2023-07-09T14:57:26;6.15;;;3.28;;
69207;SDS011;70114;47.690;8.898;2023-07-09T14:59:52;6.15;;;3.63;;
69207;SDS011;70114;47.690;8.898;2023-07-09T15:04:44;7.10;;;3.15;;
69207;SDS011;70114;47.690;8.898;2023-07-09T15:07:09;7.47;;;3.50;;
69207;SDS011;70114;47.690;8.898;2023-07-09T15:09:36;6.70;;;3.40;;
69207;SDS011;70114;47.690;8.898;2023-07-09T15:12:02;7.15;;;3.70;;
69207;SDS011;70114;47.690;8.898;2023-07-09T15:14:28;6.40;;;3.20;;
69207;SDS011;70114;47.690;8.898;2023-07-09T15:16:53;7.22;;;3.35;;
69207;SDS011;70114;47.690;8.898;2023-07-09T15:19:20;7.60;;;3.00;;
69207;SDS011;70114;47.690;8.898;2023-07-09T15:21:47;7.57;;;3.45;;
69207;SDS011;70114;47.690;8.898;2023-07-09T15:24:21;6.18;;;3.50;;
69207;SDS011;70114;47.690;8.898;2023-07-09T15:26:52;7.68;;;3.60;;
69207;SDS011;70114;47.690;8.898;2023-07-09T15:29:19;6.60;;;3.80;;
69207;SDS011;70114;47.690;8.898;2023-07-09T15:31:45;8.80;;;3.30;;
69207;SDS011;70114;47.690;8.898;2023-07-09T15:34:10;7.68;;;3.83;;
69207;SDS011;70114;47.690;8.898;2023-07-09T15:36:36;7.10;;;3.23;;
69207;SDS011;70114;47.690;8.898;2023-07-09T15:39:10;8.05;;;3.47;;
69207;SDS011;70114;47.690;8.898;2023-07-09T15:41:37;6.47;;;3.63;;
69207;SDS011;70114;47.690;8.898;2023-07-09T15:44:02;7.63;;;3.53;;
69207;SDS011;70114;47.690;8.898;2023-07-09T15:46:28;6.55;;;3.30;;
69207;SDS011;70114;47.690;8.898;2023-07-09T15:48:53;7.57;;;3.17;;
69207;SDS011;70114;47.690;8.898;2023-07-09T15:51:20;7.03;;;3.42;;
69207;SDS011;70114;47.690;8.898;2023-07-09T15:53:46;6.27;;;2.90;;